Svinoy — V7RM5 — position and weather

sailwx.info

Track history (hours):
 
Tides and Currents Weather Stations Pressure Air Temp Water Temp Dewpoint Dewpoint Depression Visibility Wind Speed Wind Dir Waves Ship Positions

Svinoy

Last reported at 2014-Sep-19 00:33 UTC. Time now 2014-Sep-19 11:55 UTC.
Position N 52°26' E 003°27'.

Length 190 m; draft 7 m.

Type: Ship. MMSI: 538003541.

Date/timePositionNaut miles runAvg speedWind from/ knotsBaromVisibWave heightAir tempDewpointWater temp
2014-Sep-19 00:33N 52°26' E 003°27'1111.2
2014-Sep-18 23:34N 52°31' E 003°43'1211.6
2014-Sep-18 22:33N 52°31' E 004°02'1212.0
2014-Sep-18 21:34N 52°30' E 004°21'9 8.7
2014-Sep-18 20:34N 52°28' E 004°36'0 0.0
2014-Sep-18 19:33N 52°28' E 004°36'0 0.0
2014-Sep-18 18:33N 52°28' E 004°36'0 0.0
2014-Sep-18 17:33N 52°28' E 004°36'0 0.0
2014-Sep-18 16:33N 52°28' E 004°36'0 0.0
2014-Sep-18 15:33N 52°28' E 004°36'0 0.0
2014-Sep-18 14:33N 52°28' E 004°36'0 0.0
2014-Sep-18 13:33N 52°28' E 004°36'0 0.0
2014-Sep-18 12:33N 52°28' E 004°36'0 0.0
2014-Sep-18 11:33N 52°28' E 004°36'0 0.0
2014-Sep-18 10:30N 52°28' E 004°36'0 0.0
2014-Sep-18 09:33N 52°28' E 004°36'0 0.0
2014-Sep-18 08:33N 52°28' E 004°36'0 0.0
2014-Sep-18 07:33N 52°28' E 004°36'0 0.0
2014-Sep-18 06:33N 52°28' E 004°36'0 0.0
2014-Sep-18 05:33N 52°28' E 004°36'0 0.0
2014-Sep-18 04:33N 52°28' E 004°36'0 0.0
2014-Sep-18 03:33N 52°28' E 004°36'0 0.0
2014-Sep-18 02:33N 52°28' E 004°36'0 0.0
2014-Sep-18 01:33N 52°28' E 004°36'168167.6
2014-Sep-18 00:33N 52°28' E 000°00'168167.6
2014-Sep-17 23:33N 52°28' E 004°36'0 0.0
2014-Sep-17 22:33N 52°28' E 004°36'0 0.0
2014-Sep-17 21:33N 52°28' E 004°36'0 0.0
2014-Sep-17 20:33N 52°28' E 004°36'0 0.0
2014-Sep-17 19:33N 52°28' E 004°36'0 0.0
2014-Sep-17 18:33N 52°28' E 004°36'0 0.0
2014-Sep-17 17:33N 52°28' E 004°36'0 0.0
2014-Sep-17 16:33N 52°28' E 004°36'0 0.0
2014-Sep-17 15:30N 52°28' E 004°36'0 0.0
2014-Sep-17 14:33N 52°28' E 004°36'0 0.0
2014-Sep-17 13:33N 52°28' E 004°36'0 0.0
2014-Sep-17 12:33N 52°28' E 004°36'0 0.0
2014-Sep-17 11:27N 52°28' E 004°36'0 0.0
2014-Sep-17 10:33N 52°28' E 004°36'0 0.0
2014-Sep-17 09:33N 52°28' E 004°36'0 0.0
2014-Sep-17 08:33N 52°28' E 004°36'0 0.0
2014-Sep-17 07:33N 52°28' E 004°36'0 0.0
2014-Sep-17 06:33N 52°28' E 004°36'0 0.0
2014-Sep-17 05:33N 52°28' E 004°36'0 0.0
2014-Sep-17 04:33N 52°28' E 004°36'0 0.0
2014-Sep-17 03:33N 52°28' E 004°36'0 0.0
2014-Sep-17 02:33N 52°28' E 004°36'0 0.0
2014-Sep-17 01:33N 52°28' E 004°36'0 0.0
2014-Sep-17 00:33N 52°28' E 004°36'0 0.0
2014-Sep-16 23:33N 52°28' E 004°36'0 0.0
2014-Sep-16 22:33N 52°28' E 004°36'0 0.0
2014-Sep-16 21:33N 52°28' E 004°36'0 0.0
2014-Sep-16 20:33N 52°28' E 004°36'0 0.0
2014-Sep-16 19:33N 52°28' E 004°36'0 0.0
2014-Sep-16 18:33N 52°28' E 004°36'0 0.0
2014-Sep-16 17:33N 52°28' E 004°36'0 0.0
2014-Sep-16 16:33N 52°28' E 004°36'0 0.0
2014-Sep-16 15:33N 52°28' E 004°36'0 0.0
2014-Sep-16 14:33N 52°28' E 004°36'0 0.0
2014-Sep-16 13:33N 52°28' E 004°36'0 0.0
2014-Sep-16 12:33N 52°28' E 004°36'0 0.0
2014-Sep-16 11:33N 52°28' E 004°36'0 0.0
2014-Sep-16 10:33N 52°28' E 004°36'0 0.0
2014-Sep-16 09:33N 52°28' E 004°36'0 0.0
2014-Sep-16 08:33N 52°28' E 004°36'0 0.0
2014-Sep-16 07:33N 52°28' E 004°36'4 3.9
2014-Sep-16 06:33N 52°28' E 004°29'8 8.4
2014-Sep-16 05:33N 52°29' E 004°15'7 7.4
2014-Sep-16 04:33N 52°27' E 004°04'2 1.9
2014-Sep-16 03:31N 52°26' E 004°01'0 0.0
2014-Sep-16 02:31N 52°26' E 004°01'0 0.0
2014-Sep-16 01:31N 52°26' E 004°01'0 0.0
2014-Sep-16 00:31N 52°26' E 004°01'0 0.1
2014-Sep-15 23:31N 52°26' E 004°01'0 0.1
2014-Sep-15 22:13N 52°27' E 004°01'0 0.1
2014-Sep-15 21:31N 52°27' E 004°01'0 0.0
2014-Sep-15 20:31N 52°27' E 004°01'0 0.0
2014-Sep-15 19:28N 52°27' E 004°01'0 0.0
2014-Sep-15 18:19N 52°27' E 004°01'0 0.2
2014-Sep-15 17:25N 52°26' E 004°01'0 0.1
2014-Sep-15 16:31N 52°26' E 004°01'0 0.0
2014-Sep-15 15:28N 52°26' E 004°01'0 0.0
2014-Sep-15 14:28N 52°26' E 004°01'0 0.0
2014-Sep-15 13:28N 52°26' E 004°01'0 0.0
2014-Sep-15 12:31N 52°26' E 004°01'0 0.0
2014-Sep-15 11:31N 52°26' E 004°01'0 0.0
2014-Sep-15 10:31N 52°26' E 004°01'0 0.2
2014-Sep-15 09:25N 52°27' E 004°01'0 0.0
2014-Sep-15 08:28N 52°27' E 004°01'0 0.0
2014-Sep-15 07:31N 52°27' E 004°01'0 0.0
2014-Sep-15 06:31N 52°27' E 004°01'0 0.0
2014-Sep-15 05:28N 52°27' E 004°01'0 0.2
2014-Sep-15 04:28N 52°26' E 004°01'0 0.0
2014-Sep-15 03:31N 52°26' E 004°01'0 0.0
2014-Sep-15 02:25N 52°26' E 004°01'0 0.0
2014-Sep-15 01:31N 52°26' E 004°01'0 0.0
2014-Sep-15 00:31N 52°26' E 004°01'0 0.0
2014-Sep-14 23:28N 52°26' E 004°01'0 0.0
2014-Sep-14 22:28N 52°26' E 004°01'0 0.1
2014-Sep-14 21:28N 52°26' E 004°01'0 0.1
2014-Sep-14 20:31N 52°27' E 004°01'0 0.0
2014-Sep-14 19:31N 52°27' E 004°01'0 0.0
2014-Sep-14 18:19N 52°27' E 004°01'0 0.1
2014-Sep-14 17:31N 52°27' E 004°01'0 0.2
2014-Sep-14 16:31N 52°26' E 004°01'0 0.0
2014-Sep-14 15:31N 52°26' E 004°01'0 0.0
2014-Sep-14 14:28N 52°26' E 004°01'0 0.0
2014-Sep-14 13:22N 52°26' E 004°01'0 0.0
2014-Sep-14 12:31N 52°26' E 004°01'0 0.0
2014-Sep-14 11:28N 52°26' E 004°01'0 0.0
2014-Sep-14 10:31N 52°26' E 004°01'0 0.1
2014-Sep-14 09:28N 52°26' E 004°01'0 0.5
2014-Sep-14 08:33N 52°27' E 004°00'7 6.9
2014-Sep-14 07:33N 52°26' E 003°49'1311.3
2014-Sep-14 06:22N 52°19' E 003°31'4612.0
2014-Sep-14 02:33N 51°46' E 002°38'1110.6
2014-Sep-14 01:33N 51°38' E 002°27'34 8.5
2014-Sep-13 21:34N 51°11' E 001°55'8 8.2
2014-Sep-13 20:33N 51°06' E 001°44'9 8.8
2014-Sep-13 19:33N 51°00' E 001°34'33 9.7
2014-Sep-13 16:06N 50°33' E 001°04'610.4
2014-Sep-13 15:33N 50°29' E 000°57'1010.1
2014-Sep-13 14:33N 50°26' E 000°42'1110.6
2014-Sep-13 13:33N 50°23' E 000°26'22411.0
2014-Sep-12 17:13N 49°01' W 004°56'912.9
2014-Sep-12 16:31N 48°56' W 005°07'22811.4
2014-Sep-11 20:33N 45°42' W 008°05'  
Track history (hours):
 
Tides and Currents Weather Stations Pressure Air Temp Water Temp Dewpoint Dewpoint Depression Visibility Wind Speed Wind Dir Waves Ship Positions

Svinoy

Last reported at 2014-Sep-19 00:33 UTC. Time now 2014-Sep-19 11:55 UTC.
Position N 52°26' E 003°27'.

Length 190 m; draft 7 m.

Type: Ship. MMSI: 538003541.

Date/timePositionNaut miles runAvg speedWind from/ knotsBaromVisibWave heightAir tempDewpointWater temp
2014-Sep-19 00:33N 52°26' E 003°27'1111.2
2014-Sep-18 23:34N 52°31' E 003°43'1211.6
2014-Sep-18 22:33N 52°31' E 004°02'1212.0
2014-Sep-18 21:34N 52°30' E 004°21'9 8.7
2014-Sep-18 20:34N 52°28' E 004°36'0 0.0
2014-Sep-18 19:33N 52°28' E 004°36'0 0.0
2014-Sep-18 18:33N 52°28' E 004°36'0 0.0
2014-Sep-18 17:33N 52°28' E 004°36'0 0.0
2014-Sep-18 16:33N 52°28' E 004°36'0 0.0
2014-Sep-18 15:33N 52°28' E 004°36'0 0.0
2014-Sep-18 14:33N 52°28' E 004°36'0 0.0
2014-Sep-18 13:33N 52°28' E 004°36'0 0.0
2014-Sep-18 12:33N 52°28' E 004°36'0 0.0
2014-Sep-18 11:33N 52°28' E 004°36'0 0.0
2014-Sep-18 10:30N 52°28' E 004°36'0 0.0
2014-Sep-18 09:33N 52°28' E 004°36'0 0.0
2014-Sep-18 08:33N 52°28' E 004°36'0 0.0
2014-Sep-18 07:33N 52°28' E 004°36'0 0.0
2014-Sep-18 06:33N 52°28' E 004°36'0 0.0
2014-Sep-18 05:33N 52°28' E 004°36'0 0.0
2014-Sep-18 04:33N 52°28' E 004°36'0 0.0
2014-Sep-18 03:33N 52°28' E 004°36'0 0.0
2014-Sep-18 02:33N 52°28' E 004°36'0 0.0
2014-Sep-18 01:33N 52°28' E 004°36'168167.6
2014-Sep-18 00:33N 52°28' E 000°00'168167.6
2014-Sep-17 23:33N 52°28' E 004°36'0 0.0
2014-Sep-17 22:33N 52°28' E 004°36'0 0.0
2014-Sep-17 21:33N 52°28' E 004°36'0 0.0
2014-Sep-17 20:33N 52°28' E 004°36'0 0.0
2014-Sep-17 19:33N 52°28' E 004°36'0 0.0
2014-Sep-17 18:33N 52°28' E 004°36'0 0.0
2014-Sep-17 17:33N 52°28' E 004°36'0 0.0
2014-Sep-17 16:33N 52°28' E 004°36'0 0.0
2014-Sep-17 15:30N 52°28' E 004°36'0 0.0
2014-Sep-17 14:33N 52°28' E 004°36'0 0.0
2014-Sep-17 13:33N 52°28' E 004°36'0 0.0
2014-Sep-17 12:33N 52°28' E 004°36'0 0.0
2014-Sep-17 11:27N 52°28' E 004°36'0 0.0
2014-Sep-17 10:33N 52°28' E 004°36'0 0.0
2014-Sep-17 09:33N 52°28' E 004°36'0 0.0
2014-Sep-17 08:33N 52°28' E 004°36'0 0.0
2014-Sep-17 07:33N 52°28' E 004°36'0 0.0
2014-Sep-17 06:33N 52°28' E 004°36'0 0.0
2014-Sep-17 05:33N 52°28' E 004°36'0 0.0
2014-Sep-17 04:33N 52°28' E 004°36'0 0.0
2014-Sep-17 03:33N 52°28' E 004°36'0 0.0
2014-Sep-17 02:33N 52°28' E 004°36'0 0.0
2014-Sep-17 01:33N 52°28' E 004°36'0 0.0
2014-Sep-17 00:33N 52°28' E 004°36'0 0.0
2014-Sep-16 23:33N 52°28' E 004°36'0 0.0
2014-Sep-16 22:33N 52°28' E 004°36'0 0.0
2014-Sep-16 21:33N 52°28' E 004°36'0 0.0
2014-Sep-16 20:33N 52°28' E 004°36'0 0.0
2014-Sep-16 19:33N 52°28' E 004°36'0 0.0
2014-Sep-16 18:33N 52°28' E 004°36'0 0.0
2014-Sep-16 17:33N 52°28' E 004°36'0 0.0
2014-Sep-16 16:33N 52°28' E 004°36'0 0.0
2014-Sep-16 15:33N 52°28' E 004°36'0 0.0
2014-Sep-16 14:33N 52°28' E 004°36'0 0.0
2014-Sep-16 13:33N 52°28' E 004°36'0 0.0
2014-Sep-16 12:33N 52°28' E 004°36'0 0.0
2014-Sep-16 11:33N 52°28' E 004°36'0 0.0
2014-Sep-16 10:33N 52°28' E 004°36'0 0.0
2014-Sep-16 09:33N 52°28' E 004°36'0 0.0
2014-Sep-16 08:33N 52°28' E 004°36'0 0.0
2014-Sep-16 07:33N 52°28' E 004°36'4 3.9
2014-Sep-16 06:33N 52°28' E 004°29'8 8.4
2014-Sep-16 05:33N 52°29' E 004°15'7 7.4
2014-Sep-16 04:33N 52°27' E 004°04'2 1.9
2014-Sep-16 03:31N 52°26' E 004°01'0 0.0
2014-Sep-16 02:31N 52°26' E 004°01'0 0.0
2014-Sep-16 01:31N 52°26' E 004°01'0 0.0
2014-Sep-16 00:31N 52°26' E 004°01'0 0.1
2014-Sep-15 23:31N 52°26' E 004°01'0 0.1
2014-Sep-15 22:13N 52°27' E 004°01'0 0.1
2014-Sep-15 21:31N 52°27' E 004°01'0 0.0
2014-Sep-15 20:31N 52°27' E 004°01'0 0.0
2014-Sep-15 19:28N 52°27' E 004°01'0 0.0
2014-Sep-15 18:19N 52°27' E 004°01'0 0.2
2014-Sep-15 17:25N 52°26' E 004°01'0 0.1
2014-Sep-15 16:31N 52°26' E 004°01'0 0.0
2014-Sep-15 15:28N 52°26' E 004°01'0 0.0
2014-Sep-15 14:28N 52°26' E 004°01'0 0.0
2014-Sep-15 13:28N 52°26' E 004°01'0 0.0
2014-Sep-15 12:31N 52°26' E 004°01'0 0.0
2014-Sep-15 11:31N 52°26' E 004°01'0 0.0
2014-Sep-15 10:31N 52°26' E 004°01'0 0.2
2014-Sep-15 09:25N 52°27' E 004°01'0 0.0
2014-Sep-15 08:28N 52°27' E 004°01'0 0.0
2014-Sep-15 07:31N 52°27' E 004°01'0 0.0
2014-Sep-15 06:31N 52°27' E 004°01'0 0.0
2014-Sep-15 05:28N 52°27' E 004°01'0 0.2
2014-Sep-15 04:28N 52°26' E 004°01'0 0.0
2014-Sep-15 03:31N 52°26' E 004°01'0 0.0
2014-Sep-15 02:25N 52°26' E 004°01'0 0.0
2014-Sep-15 01:31N 52°26' E 004°01'0 0.0
2014-Sep-15 00:31N 52°26' E 004°01'0 0.0
2014-Sep-14 23:28N 52°26' E 004°01'0 0.0
2014-Sep-14 22:28N 52°26' E 004°01'0 0.1
2014-Sep-14 21:28N 52°26' E 004°01'0 0.1
2014-Sep-14 20:31N 52°27' E 004°01'0 0.0
2014-Sep-14 19:31N 52°27' E 004°01'0 0.0
2014-Sep-14 18:19N 52°27' E 004°01'0 0.1
2014-Sep-14 17:31N 52°27' E 004°01'0 0.2
2014-Sep-14 16:31N 52°26' E 004°01'0 0.0
2014-Sep-14 15:31N 52°26' E 004°01'0 0.0
2014-Sep-14 14:28N 52°26' E 004°01'0 0.0
2014-Sep-14 13:22N 52°26' E 004°01'0 0.0
2014-Sep-14 12:31N 52°26' E 004°01'0 0.0
2014-Sep-14 11:28N 52°26' E 004°01'0 0.0
2014-Sep-14 10:31N 52°26' E 004°01'0 0.1
2014-Sep-14 09:28N 52°26' E 004°01'0 0.5
2014-Sep-14 08:33N 52°27' E 004°00'7 6.9
2014-Sep-14 07:33N 52°26' E 003°49'1311.3
2014-Sep-14 06:22N 52°19' E 003°31'4612.0
2014-Sep-14 02:33N 51°46' E 002°38'1110.6
2014-Sep-14 01:33N 51°38' E 002°27'34 8.5
2014-Sep-13 21:34N 51°11' E 001°55'8 8.2
2014-Sep-13 20:33N 51°06' E 001°44'9 8.8
2014-Sep-13 19:33N 51°00' E 001°34'33 9.7
2014-Sep-13 16:06N 50°33' E 001°04'610.4
2014-Sep-13 15:33N 50°29' E 000°57'1010.1
2014-Sep-13 14:33N 50°26' E 000°42'1110.6
2014-Sep-13 13:33N 50°23' E 000°26'22411.0
2014-Sep-12 17:13N 49°01' W 004°56'912.9
2014-Sep-12 16:31N 48°56' W 005°07'22811.4
2014-Sep-11 20:33N 45°42' W 008°05'  

Dump ship's entire track history